createdAt,value
2018-12-19T00:01:40.353Z,7.80
2018-12-19T00:04:14.194Z,9.57
2018-12-19T00:06:43.585Z,8.17
2018-12-19T00:09:18.553Z,7.57
2018-12-19T00:11:51.467Z,9.50
2018-12-19T00:14:20.960Z,10.03
2018-12-19T00:16:56.811Z,8.13
2018-12-19T00:19:26.990Z,11.50
2018-12-19T00:22:02.202Z,15.07
2018-12-19T00:24:37.535Z,12.07
2018-12-19T00:27:08.849Z,9.97
2018-12-19T00:29:39.686Z,11.90
2018-12-19T00:32:10.486Z,11.23
2018-12-19T00:34:46.542Z,8.87
2018-12-19T00:37:15.730Z,10.37
2018-12-19T00:39:45.339Z,9.23
2018-12-19T00:42:16.209Z,7.77
2018-12-19T00:44:47.102Z,7.63
2018-12-19T00:47:22.414Z,7.43
2018-12-19T00:49:57.033Z,7.90
2018-12-19T00:52:29.826Z,7.93
2018-12-19T00:55:05.178Z,9.83
2018-12-19T00:57:34.165Z,9.53
2018-12-19T01:00:08.627Z,9.37
2018-12-19T01:02:38.089Z,9.00
2018-12-19T01:05:10.876Z,8.37
2018-12-19T01:07:39.874Z,7.87
2018-12-19T01:10:14.683Z,7.37
2018-12-19T01:12:49.459Z,8.07
2018-12-19T01:15:22.594Z,7.20
2018-12-19T01:17:51.909Z,7.00
2018-12-19T01:20:23.213Z,7.97
2018-12-19T01:22:56.166Z,9.07
2018-12-19T01:25:25.658Z,8.87
2018-12-19T01:27:54.867Z,8.37
2018-12-19T01:30:26.969Z,7.27
2018-12-19T01:32:59.774Z,6.23
2018-12-19T01:35:37.162Z,5.10
2018-12-19T01:38:11.664Z,5.67
2018-12-19T01:40:43.943Z,5.90
2018-12-19T01:43:19.230Z,6.70
2018-12-19T01:45:50.257Z,4.37
2018-12-19T01:48:22.858Z,6.43
2018-12-19T01:50:55.366Z,6.27
2018-12-19T01:53:30.782Z,6.30
2018-12-19T01:56:04.007Z,6.20
2018-12-19T01:58:33.603Z,7.63
2018-12-19T02:01:02.586Z,8.30
2018-12-19T02:03:35.554Z,8.70
2018-12-19T02:06:08.054Z,7.63
2018-12-19T02:08:37.442Z,7.10
2018-12-19T02:11:12.126Z,6.73
2018-12-19T02:13:45.194Z,7.37
2018-12-19T02:16:14.186Z,4.50
2018-12-19T02:18:44.539Z,6.47
2018-12-19T02:21:13.854Z,6.60
2018-12-19T02:23:48.303Z,4.67
2018-12-19T02:26:23.055Z,8.10
2018-12-19T02:28:53.051Z,7.03
2018-12-19T02:31:25.699Z,7.40
2018-12-19T02:33:58.810Z,6.80
2018-12-19T02:36:34.456Z,6.37
2018-12-19T02:39:09.302Z,5.87
2018-12-19T02:41:38.403Z,6.10
2018-12-19T02:44:10.609Z,7.47
2018-12-19T02:46:39.599Z,7.47
2018-12-19T02:49:14.355Z,7.87
2018-12-19T02:51:47.986Z,4.90
2018-12-19T02:54:16.979Z,5.63
2018-12-19T02:56:50.122Z,4.20
2018-12-19T02:59:19.113Z,6.73
2018-12-19T03:01:52.187Z,5.00
2018-12-19T03:04:21.174Z,6.03
2018-12-19T03:06:53.483Z,5.67
2018-12-19T03:09:23.732Z,6.10
2018-12-19T03:11:57.146Z,5.50
2018-12-19T03:14:26.768Z,5.07
2018-12-19T03:16:59.535Z,4.90
2018-12-19T03:19:30.258Z,4.07
2018-12-19T03:22:02.682Z,4.93
2018-12-19T03:24:37.443Z,5.60
2018-12-19T03:27:10.582Z,5.80
2018-12-19T03:29:42.666Z,5.10
2018-12-19T03:32:11.924Z,5.87
2018-12-19T03:34:41.249Z,4.73
2018-12-19T03:37:10.636Z,5.47
2018-12-19T03:39:49.994Z,7.20
2018-12-19T03:42:20.891Z,5.97
2018-12-19T03:44:50.206Z,4.30
2018-12-19T03:47:25.210Z,7.23
2018-12-19T03:49:55.007Z,4.13
2018-12-19T03:52:25.863Z,3.90
2018-12-19T03:55:01.538Z,3.73
2018-12-19T03:57:36.272Z,5.17
2018-12-19T04:00:10.238Z,4.33
2018-12-19T04:02:43.196Z,5.87
2018-12-19T04:05:18.256Z,5.10
2018-12-19T04:07:47.785Z,5.90
2018-12-19T04:10:20.837Z,4.83
2018-12-19T04:12:49.830Z,5.57
2018-12-19T04:15:25.377Z,10.47
2018-12-19T04:17:54.395Z,4.67
2018-12-19T04:20:29.836Z,4.93
2018-12-19T04:22:58.915Z,5.23
2018-12-19T04:25:30.006Z,5.93
2018-12-19T04:27:59.090Z,6.43
2018-12-19T04:30:28.642Z,3.87
2018-12-19T04:33:03.558Z,5.07
2018-12-19T04:35:35.281Z,3.87
2018-12-19T04:38:04.762Z,3.70
2018-12-19T04:40:34.506Z,5.07
2018-12-19T04:43:08.586Z,4.60
2018-12-19T04:45:43.903Z,4.63
2018-12-19T04:48:18.375Z,4.83
2018-12-19T04:50:52.938Z,4.70
2018-12-19T04:53:25.850Z,4.20
2018-12-19T04:55:56.718Z,6.20
2018-12-19T04:58:25.915Z,4.73
2018-12-19T05:00:56.803Z,5.77
2018-12-19T05:03:26.433Z,5.00
2018-12-19T05:05:55.422Z,5.50
2018-12-19T05:08:28.017Z,5.63
2018-12-19T05:10:59.303Z,5.80
2018-12-19T05:13:34.502Z,5.00
2018-12-19T05:16:07.487Z,5.67
2018-12-19T05:18:38.838Z,4.57
2018-12-19T05:21:11.018Z,5.80
2018-12-19T05:23:40.022Z,6.13
2018-12-19T05:26:14.843Z,4.60
2018-12-19T05:28:49.518Z,11.07
2018-12-19T05:31:24.604Z,5.17
2018-12-19T05:33:57.735Z,5.47
2018-12-19T05:36:26.707Z,6.13
2018-12-19T05:38:55.898Z,7.07
2018-12-19T05:41:26.380Z,5.87
2018-12-19T05:43:59.270Z,5.53
2018-12-19T05:46:32.594Z,4.77
2018-12-19T05:49:05.544Z,6.17
2018-12-19T05:51:34.918Z,7.73
2018-12-19T05:54:08.078Z,6.00
2018-12-19T05:56:40.798Z,6.27
2018-12-19T05:59:09.771Z,6.07
2018-12-19T06:01:44.819Z,12.50
2018-12-19T06:04:17.790Z,7.10
2018-12-19T06:06:47.183Z,7.07
2018-12-19T06:09:16.149Z,9.00
2018-12-19T06:11:45.384Z,7.40
2018-12-19T06:14:20.046Z,9.03
2018-12-19T06:16:52.645Z,7.73
2018-12-19T06:19:27.955Z,8.33
2018-12-19T06:21:57.621Z,7.95
2018-12-19T06:24:27.230Z,8.07
2018-12-19T06:27:03.446Z,6.73
2018-12-19T06:29:35.810Z,7.43
2018-12-19T06:32:05.009Z,7.47
2018-12-19T06:34:34.219Z,8.03
2018-12-19T06:37:08.206Z,8.43
2018-12-19T06:39:37.582Z,7.70
2018-12-19T06:42:09.702Z,11.27
2018-12-19T06:44:42.857Z,11.03
2018-12-19T06:47:11.842Z,12.60
2018-12-19T06:49:44.831Z,11.50
2018-12-19T06:52:17.326Z,8.17
2018-12-19T06:54:52.625Z,9.20
2018-12-19T06:57:21.618Z,12.77
2018-12-19T06:59:57.129Z,10.33
2018-12-19T07:02:26.747Z,8.67
2018-12-19T07:04:55.884Z,12.30
2018-12-19T07:07:25.289Z,11.53
2018-12-19T07:09:54.301Z,9.07
2018-12-19T07:12:25.570Z,8.70
2018-12-19T07:14:56.126Z,13.20
2018-12-19T07:17:29.206Z,12.13
2018-12-19T07:20:04.626Z,13.47
2018-12-19T07:22:40.073Z,11.53
2018-12-19T07:25:15.161Z,11.27
2018-12-19T07:27:49.714Z,12.37
2018-12-19T07:30:24.278Z,9.93
2018-12-19T07:32:56.631Z,11.30
2018-12-19T07:35:30.111Z,13.37
2018-12-19T07:38:02.633Z,14.93
2018-12-19T07:40:33.094Z,12.83
2018-12-19T07:43:02.566Z,12.40
2018-12-19T07:45:37.392Z,13.17
2018-12-19T07:48:06.626Z,13.67
2018-12-19T07:50:36.534Z,14.77
2018-12-19T07:53:05.721Z,16.20
2018-12-19T07:55:36.870Z,15.40
2018-12-19T07:58:08.042Z,15.70
2018-12-19T08:00:43.383Z,17.40
2018-12-19T08:03:18.207Z,17.77
2018-12-19T08:05:52.887Z,16.63
2018-12-19T08:08:22.299Z,16.27
2018-12-19T08:10:52.464Z,17.00
2018-12-19T08:13:27.398Z,17.23
2018-12-19T08:15:57.478Z,16.20
2018-12-19T08:18:30.956Z,17.17
2018-12-19T08:21:00.362Z,20.13
2018-12-19T08:23:29.693Z,18.57
2018-12-19T08:26:05.028Z,18.40
2018-12-19T08:28:34.012Z,19.70
2018-12-19T08:31:03.792Z,21.67
2018-12-19T08:33:36.651Z,20.00
2018-12-19T08:36:11.718Z,23.13
2018-12-19T08:38:43.942Z,26.40
2018-12-19T08:41:17.147Z,21.73
2018-12-19T08:43:46.486Z,22.37
2018-12-19T08:46:18.694Z,22.77
2018-12-19T08:48:47.696Z,26.23
2018-12-19T08:51:22.585Z,25.17
2018-12-19T08:53:55.574Z,25.73
2018-12-19T08:56:28.798Z,26.63
2018-12-19T08:59:00.008Z,25.27
2018-12-19T09:01:32.613Z,25.83
2018-12-19T09:04:07.254Z,26.97
2018-12-19T09:06:37.370Z,24.80
2018-12-19T09:09:10.090Z,25.13
2018-12-19T09:11:41.006Z,29.43
2018-12-19T09:14:13.373Z,26.03
2018-12-19T09:16:42.363Z,29.77
2018-12-19T09:19:11.365Z,28.87
2018-12-19T09:21:40.610Z,28.83
2018-12-19T09:24:11.922Z,26.13
2018-12-19T09:26:46.997Z,31.80
2018-12-19T09:29:18.310Z,28.23
2018-12-19T09:31:53.385Z,28.47
2018-12-19T09:34:22.774Z,28.90
2018-12-19T09:36:52.172Z,28.23
2018-12-19T09:39:24.863Z,30.43
2018-12-19T09:42:00.050Z,31.80
2018-12-19T09:44:32.999Z,29.03
2018-12-19T09:47:08.171Z,25.57
2018-12-19T09:49:38.976Z,24.33
2018-12-19T09:52:10.810Z,22.20
2018-12-19T09:54:46.183Z,23.07
2018-12-19T09:57:15.511Z,22.57
2018-12-19T09:59:47.880Z,22.40
2018-12-19T10:02:23.014Z,19.67
2018-12-19T10:04:55.070Z,18.40
2018-12-19T10:07:27.680Z,18.63
2018-12-19T10:09:56.687Z,20.43
2018-12-19T10:12:29.585Z,21.77
2018-12-19T10:14:58.585Z,17.10
2018-12-19T10:17:33.430Z,15.80
2018-12-19T10:20:02.851Z,13.83
2018-12-19T10:22:34.074Z,16.53
2018-12-19T10:25:14.205Z,12.57
2018-12-19T10:27:43.198Z,16.30
2018-12-19T10:30:17.650Z,13.63
2018-12-19T10:32:56.177Z,13.80
2018-12-19T10:35:31.259Z,13.40
2018-12-19T10:38:01.583Z,12.97
2018-12-19T10:40:32.458Z,15.47
2018-12-19T10:43:03.922Z,10.73
2018-12-19T10:45:39.405Z,11.10
2018-12-19T10:48:11.598Z,13.77
2018-12-19T10:50:47.330Z,12.30
2018-12-19T10:53:20.245Z,13.30
2018-12-19T10:55:49.861Z,15.75
2018-12-19T10:58:22.729Z,12.30
2018-12-19T11:01:01.061Z,12.47
2018-12-19T11:03:32.181Z,10.60
2018-12-19T11:06:01.186Z,11.60
2018-12-19T11:08:34.114Z,11.00
2018-12-19T11:11:07.714Z,11.80
2018-12-19T11:16:14.273Z,13.03
2018-12-19T11:18:48.850Z,16.07
2018-12-19T11:21:19.959Z,10.43
2018-12-19T11:23:54.806Z,10.93
2018-12-19T11:26:24.798Z,7.90
2018-12-19T11:28:57.598Z,11.77
2018-12-19T11:31:33.418Z,10.93
2018-12-19T11:34:07.862Z,11.53
2018-12-19T11:36:37.262Z,11.13
2018-12-19T11:39:08.230Z,10.70
2018-12-19T11:41:39.144Z,10.23
2018-12-19T11:44:12.637Z,9.93
2018-12-19T11:46:42.697Z,8.23
2018-12-19T11:49:15.527Z,7.23
2018-12-19T11:51:50.439Z,10.63
2018-12-19T11:54:19.725Z,11.07
2018-12-19T11:56:51.535Z,10.40
2018-12-19T11:59:26.208Z,9.30
2018-12-19T12:01:55.452Z,9.13
2018-12-19T12:04:25.655Z,8.30
2018-12-19T12:06:58.170Z,8.70
2018-12-19T12:09:31.083Z,7.50
2018-12-19T12:12:04.630Z,8.27
2018-12-19T12:14:41.508Z,6.93
2018-12-19T12:17:10.517Z,11.83
2018-12-19T12:19:45.763Z,6.57
2018-12-19T12:22:18.616Z,11.77
2018-12-19T12:24:48.017Z,8.00
2018-12-19T12:27:20.695Z,4.57
2018-12-19T12:29:49.680Z,5.63
2018-12-19T12:32:21.783Z,5.83
2018-12-19T12:34:54.498Z,9.60
2018-12-19T12:37:23.494Z,8.27
2018-12-19T12:39:56.377Z,7.47
2018-12-19T12:42:25.396Z,6.83
2018-12-19T12:44:55.158Z,5.73
2018-12-19T12:47:24.436Z,8.13
2018-12-19T12:49:57.226Z,5.80
2018-12-19T12:52:29.606Z,6.10
2018-12-19T12:54:59.837Z,5.17
2018-12-19T12:57:30.599Z,9.37
2018-12-19T13:00:07.154Z,5.50
2018-12-19T13:02:39.332Z,6.97
2018-12-19T13:05:14.674Z,6.00
2018-12-19T13:07:46.962Z,5.23
2018-12-19T13:10:19.859Z,4.17
2018-12-19T13:12:52.097Z,7.63
2018-12-19T13:15:26.857Z,5.30
2018-12-19T13:17:56.238Z,9.47
2018-12-19T13:20:31.080Z,6.00
2018-12-19T13:23:00.070Z,3.50
2018-12-19T13:25:33.847Z,6.43
2018-12-19T13:28:03.446Z,5.13
2018-12-19T13:30:36.694Z,6.23
2018-12-19T13:33:08.990Z,5.17
2018-12-19T13:35:44.403Z,6.93
2018-12-19T13:38:14.494Z,6.43
2018-12-19T13:40:47.839Z,6.40
2018-12-19T13:43:18.699Z,8.17
2018-12-19T13:45:51.172Z,9.53
2018-12-19T13:48:22.022Z,3.90
2018-12-19T13:50:56.470Z,4.43
2018-12-19T13:53:26.486Z,6.17
2018-12-19T13:56:00.172Z,6.83
2018-12-19T13:58:29.685Z,5.27
2018-12-19T14:01:05.386Z,8.20
2018-12-19T14:03:40.219Z,4.07
2018-12-19T14:06:11.638Z,4.20
2018-12-19T14:08:44.613Z,21.57
2018-12-19T14:11:20.047Z,17.70
2018-12-19T14:13:52.566Z,8.37
2018-12-19T14:16:27.086Z,6.57
2018-12-19T14:18:56.301Z,6.63
2018-12-19T14:21:31.326Z,4.90
2018-12-19T14:24:01.425Z,6.60
2018-12-19T14:26:30.533Z,7.67
2018-12-19T14:29:03.550Z,7.23
2018-12-19T14:31:38.394Z,5.17
2018-12-19T14:34:11.178Z,4.90
2018-12-19T14:36:44.395Z,6.17
2018-12-19T14:39:16.526Z,7.67
2018-12-19T14:41:51.366Z,4.77
2018-12-19T14:44:23.995Z,2.80
2018-12-19T14:46:55.638Z,4.90
2018-12-19T14:49:25.024Z,3.53
2018-12-19T14:51:57.522Z,3.10
2018-12-19T14:54:30.734Z,4.73
2018-12-19T14:56:59.718Z,6.00
2018-12-19T14:59:34.917Z,5.93
2018-12-19T15:02:07.734Z,8.97
2018-12-19T15:04:36.969Z,5.77
2018-12-19T15:07:06.174Z,7.30
2018-12-19T15:09:41.075Z,6.63
2018-12-19T15:12:13.963Z,9.43
2018-12-19T15:14:46.458Z,4.33
2018-12-19T15:17:19.766Z,6.37
2018-12-19T15:19:54.718Z,6.13
2018-12-19T15:22:27.606Z,7.57
2018-12-19T15:25:00.006Z,6.77
2018-12-19T15:27:33.567Z,5.47
2018-12-19T15:30:09.544Z,3.77
2018-12-19T15:32:42.450Z,5.60
2018-12-19T15:35:11.838Z,7.27
2018-12-19T15:37:45.170Z,5.73
2018-12-19T15:40:20.392Z,4.53
2018-12-19T15:42:49.434Z,7.83
2018-12-19T15:45:18.451Z,5.93
2018-12-19T15:47:49.906Z,8.40
2018-12-19T15:50:22.306Z,5.90
2018-12-19T15:52:57.662Z,7.70
2018-12-19T15:55:28.605Z,5.97
2018-12-19T15:58:03.398Z,8.90
2018-12-19T16:00:36.290Z,11.93
2018-12-19T16:03:08.730Z,5.83
2018-12-19T16:05:44.006Z,7.33
2018-12-19T16:08:13.610Z,5.97
2018-12-19T16:10:45.834Z,6.83
2018-12-19T16:13:21.834Z,4.33
2018-12-19T16:15:56.719Z,6.55
2018-12-19T16:18:32.153Z,6.77
2018-12-19T16:21:01.805Z,9.70
2018-12-19T16:23:34.189Z,8.17
2018-12-19T16:26:03.575Z,5.27
2018-12-19T16:28:32.772Z,13.87
2018-12-19T16:31:02.003Z,11.27
2018-12-19T16:33:36.493Z,4.47
2018-12-19T16:36:11.382Z,7.57
2018-12-19T16:38:42.296Z,10.83
2018-12-19T16:41:16.984Z,21.27
2018-12-19T16:43:52.621Z,8.70
2018-12-19T16:46:25.979Z,34.20
2018-12-19T16:48:59.519Z,19.70
2018-12-19T16:51:32.638Z,12.10
2018-12-19T16:54:02.426Z,14.50
2018-12-19T16:56:31.411Z,8.23
2018-12-19T16:59:01.434Z,6.33
2018-12-19T17:01:30.598Z,9.43
2018-12-19T17:04:03.182Z,8.80
2018-12-19T17:06:36.058Z,5.37
2018-12-19T17:09:07.991Z,5.53
2018-12-19T17:11:39.054Z,8.63
2018-12-19T17:14:11.182Z,7.47
2018-12-19T17:16:44.712Z,7.20
2018-12-19T17:19:13.749Z,4.90
2018-12-19T17:21:44.454Z,7.33
2018-12-19T17:24:17.665Z,12.57
2018-12-19T17:26:50.949Z,9.80
2018-12-19T17:29:26.007Z,4.77
2018-12-19T17:31:58.685Z,10.37
2018-12-19T17:34:27.742Z,7.20
2018-12-19T17:36:57.382Z,7.73
2018-12-19T17:39:26.969Z,6.07
2018-12-19T17:41:56.002Z,8.87
2018-12-19T17:44:25.032Z,5.93
2018-12-19T17:46:58.999Z,3.87
2018-12-19T17:49:34.414Z,10.27
2018-12-19T17:52:05.473Z,18.37
2018-12-19T17:54:40.870Z,21.07
2018-12-19T17:57:11.254Z,7.27
2018-12-19T17:59:45.414Z,21.80
2018-12-19T18:02:18.789Z,4.50
2018-12-19T18:04:54.279Z,6.30
2018-12-19T18:07:28.071Z,7.80
2018-12-19T18:10:01.658Z,4.87
2018-12-19T18:12:33.725Z,11.70
2018-12-19T18:15:09.895Z,7.07
2018-12-19T18:17:45.382Z,5.97
2018-12-19T18:20:17.708Z,4.93
2018-12-19T18:22:46.946Z,6.97
2018-12-19T18:25:22.343Z,4.83
2018-12-19T18:27:55.842Z,7.30
2018-12-19T18:30:29.247Z,9.63
2018-12-19T18:32:58.332Z,5.87
2018-12-19T18:35:31.634Z,7.57
2018-12-19T18:38:06.203Z,7.00
2018-12-19T18:40:41.683Z,10.60
2018-12-19T18:43:13.057Z,5.83
2018-12-19T18:45:47.480Z,5.33
2018-12-19T18:48:20.705Z,11.73
2018-12-19T18:50:53.681Z,7.93
2018-12-19T18:53:26.654Z,6.03
2018-12-19T18:56:00.042Z,10.53
2018-12-19T18:58:29.854Z,4.33
2018-12-19T19:01:00.750Z,11.03
2018-12-19T19:03:32.490Z,8.40
2018-12-19T19:06:02.371Z,9.53
2018-12-19T19:08:32.080Z,6.40
2018-12-19T19:11:06.650Z,8.73
2018-12-19T19:13:41.252Z,7.10
2018-12-19T19:16:17.070Z,8.27
2018-12-19T19:18:46.428Z,8.07
2018-12-19T19:21:21.162Z,7.90
2018-12-19T19:23:53.367Z,5.60
2018-12-19T19:26:23.878Z,5.63
2018-12-19T19:28:56.307Z,10.20
2018-12-19T19:31:27.179Z,7.33
2018-12-19T19:34:02.898Z,6.90
2018-12-19T19:36:32.162Z,4.20
2018-12-19T19:39:01.546Z,6.17
2018-12-19T19:41:32.463Z,7.60
2018-12-19T19:44:05.764Z,11.07
2018-12-19T19:46:34.957Z,6.30
2018-12-19T19:49:07.862Z,8.40
2018-12-19T19:51:40.882Z,11.37
2018-12-19T19:54:16.155Z,12.57
2018-12-19T19:56:45.551Z,10.57
2018-12-19T19:59:14.530Z,5.80
2018-12-19T20:01:43.515Z,19.47
2018-12-19T20:04:16.164Z,9.90
2018-12-19T20:06:46.726Z,7.57
2018-12-19T20:09:20.119Z,8.23
2018-12-19T20:11:49.514Z,10.57
2018-12-19T20:14:20.426Z,8.40
2018-12-19T20:17:00.641Z,6.97
2018-12-19T20:19:34.038Z,6.27
2018-12-19T20:22:09.166Z,6.00
2018-12-19T20:24:44.321Z,13.27
2018-12-19T20:27:19.378Z,6.27
2018-12-19T20:29:54.330Z,10.23
2018-12-19T20:32:27.970Z,7.27
2018-12-19T20:35:00.669Z,7.47
2018-12-19T20:37:30.038Z,6.30
2018-12-19T20:40:05.186Z,6.83
2018-12-19T20:42:40.838Z,10.80
2018-12-19T20:45:09.838Z,6.93
2018-12-19T20:47:43.467Z,7.57
2018-12-19T20:50:16.237Z,8.07
2018-12-19T20:52:46.874Z,5.80
2018-12-19T20:55:16.986Z,10.00
2018-12-19T20:57:46.331Z,8.17
2018-12-19T21:00:15.704Z,6.47
2018-12-19T21:02:48.934Z,11.13
2018-12-19T21:05:17.910Z,9.50
2018-12-19T21:08:00.871Z,9.13
2018-12-19T21:10:29.987Z,8.37
2018-12-19T21:12:59.122Z,8.90
2018-12-19T21:15:35.050Z,11.20
2018-12-19T21:18:15.461Z,8.33
2018-12-19T21:20:46.299Z,9.67
2018-12-19T21:23:22.170Z,9.23
2018-12-19T21:25:54.770Z,6.23
2018-12-19T21:28:32.058Z,10.63
2018-12-19T21:31:01.469Z,12.73
2018-12-19T21:33:30.673Z,6.47
2018-12-19T21:36:01.092Z,11.20
2018-12-19T21:38:33.886Z,7.73
2018-12-19T21:41:04.983Z,8.43
2018-12-19T21:43:38.006Z,11.13
2018-12-19T21:46:10.518Z,6.27
2018-12-19T21:48:45.820Z,8.27
2018-12-19T21:51:18.142Z,9.67
2018-12-19T21:53:47.149Z,8.57
2018-12-19T21:56:22.338Z,8.50
2018-12-19T21:58:51.333Z,10.77
2018-12-19T22:01:23.823Z,15.20
2018-12-19T22:03:53.207Z,11.53
2018-12-19T22:06:26.437Z,11.73
2018-12-19T22:09:00.671Z,10.87
2018-12-19T22:11:30.716Z,10.20
2018-12-19T22:14:05.129Z,8.40
2018-12-19T22:16:39.839Z,7.03
2018-12-19T22:19:14.946Z,10.30
2018-12-19T22:21:48.906Z,7.83
2018-12-19T22:24:21.066Z,12.00
2018-12-19T22:26:56.514Z,7.97
2018-12-19T22:29:29.815Z,10.47
2018-12-19T22:32:05.074Z,7.17
2018-12-19T22:34:40.835Z,6.50
2018-12-19T22:37:18.747Z,10.77
2018-12-19T22:39:54.256Z,11.83
2018-12-19T22:42:27.458Z,27.33
2018-12-19T22:44:58.074Z,9.70
2018-12-19T22:47:30.836Z,10.40
2018-12-19T22:50:05.596Z,11.03
2018-12-19T22:52:37.573Z,10.53
2018-12-19T22:55:12.891Z,11.30
2018-12-19T22:57:45.162Z,17.77
2018-12-19T23:00:20.324Z,13.13
2018-12-19T23:02:57.881Z,13.37
2018-12-19T23:05:32.675Z,16.63
2018-12-19T23:08:06.569Z,14.07
2018-12-19T23:10:39.037Z,10.43
2018-12-19T23:13:11.677Z,13.67
2018-12-19T23:15:45.295Z,12.33
2018-12-19T23:18:20.375Z,7.53
2018-12-19T23:20:53.743Z,9.20
2018-12-19T23:23:23.803Z,12.37
2018-12-19T23:25:54.980Z,8.13
2018-12-19T23:28:27.733Z,10.77
2018-12-19T23:31:03.453Z,9.37
2018-12-19T23:33:36.892Z,10.07
2018-12-19T23:36:08.112Z,10.90
2018-12-19T23:38:37.714Z,7.90
2018-12-19T23:41:10.554Z,9.63
2018-12-19T23:43:43.086Z,7.43
2018-12-19T23:46:16.250Z,12.47
2018-12-19T23:48:49.250Z,10.93
2018-12-19T23:51:18.833Z,13.23
2018-12-19T23:53:53.429Z,8.70
2018-12-19T23:56:25.650Z,17.67
2018-12-19T23:59:01.085Z,32.53
